sensor_id;sensor_type;location;lat;lon;timestamp;pressure;altitude;pressure_sealevel;temperature;humidity
76011;BME280;64701;43.536;1.478;2023-04-15T00:00:58;99385.97;;;11.40;84.82
76011;BME280;64701;43.536;1.478;2023-04-15T00:03:23;99390.88;;;11.43;84.79
76011;BME280;64701;43.536;1.478;2023-04-15T00:05:48;99391.91;;;11.42;85.07
76011;BME280;64701;43.536;1.478;2023-04-15T00:08:14;99389.22;;;11.35;84.87
76011;BME280;64701;43.536;1.478;2023-04-15T00:10:39;99387.78;;;11.33;85.46
76011;BME280;64701;43.536;1.478;2023-04-15T00:13:04;99386.34;;;11.24;85.44
76011;BME280;64701;43.536;1.478;2023-04-15T00:15:30;99386.13;;;11.19;85.92
76011;BME280;64701;43.536;1.478;2023-04-15T00:17:55;99390.41;;;11.20;85.88
76011;BME280;64701;43.536;1.478;2023-04-15T00:20:21;99386.13;;;11.19;85.70
76011;BME280;64701;43.536;1.478;2023-04-15T00:22:46;99388.78;;;11.19;86.04
76011;BME280;64701;43.536;1.478;2023-04-15T00:25:11;99386.91;;;11.13;85.79
76011;BME280;64701;43.536;1.478;2023-04-15T00:27:37;99392.59;;;11.10;86.70
76011;BME280;64701;43.536;1.478;2023-04-15T00:30:02;99397.50;;;11.06;86.89
76011;BME280;64701;43.536;1.478;2023-04-15T00:32:28;99393.16;;;10.98;87.09
76011;BME280;64701;43.536;1.478;2023-04-15T00:34:54;99388.06;;;10.97;87.65
76011;BME280;64701;43.536;1.478;2023-04-15T00:37:19;99387.88;;;10.98;87.36
76011;BME280;64701;43.536;1.478;2023-04-15T00:39:44;99380.94;;;10.97;87.61
76011;BME280;64701;43.536;1.478;2023-04-15T00:42:12;99392.78;;;11.01;87.80
76011;BME280;64701;43.536;1.478;2023-04-15T00:44:37;99399.69;;;11.02;87.43
76011;BME280;64701;43.536;1.478;2023-04-15T00:47:02;99391.19;;;11.07;87.59
76011;BME280;64701;43.536;1.478;2023-04-15T00:49:28;99398.34;;;11.13;87.96
76011;BME280;64701;43.536;1.478;2023-04-15T00:51:54;99389.56;;;11.13;88.77
76011;BME280;64701;43.536;1.478;2023-04-15T00:54:20;99391.59;;;11.11;88.91
76011;BME280;64701;43.536;1.478;2023-04-15T00:56:46;99386.28;;;11.11;89.92
76011;BME280;64701;43.536;1.478;2023-04-15T00:59:12;99392.03;;;11.14;89.56
76011;BME280;64701;43.536;1.478;2023-04-15T01:01:38;99383.00;;;11.09;89.65
76011;BME280;64701;43.536;1.478;2023-04-15T01:04:04;99381.78;;;11.04;90.41
76011;BME280;64701;43.536;1.478;2023-04-15T01:06:30;99385.66;;;11.02;90.32
76011;BME280;64701;43.536;1.478;2023-04-15T01:08:57;99386.06;;;11.05;90.17
76011;BME280;64701;43.536;1.478;2023-04-15T01:11:22;99385.06;;;11.07;90.46
76011;BME280;64701;43.536;1.478;2023-04-15T01:13:48;99389.91;;;11.03;90.01
76011;BME280;64701;43.536;1.478;2023-04-15T01:16:14;99390.34;;;11.00;89.85
76011;BME280;64701;43.536;1.478;2023-04-15T01:18:40;99388.06;;;10.97;89.30
76011;BME280;64701;43.536;1.478;2023-04-15T01:21:06;99402.94;;;10.98;89.07
76011;BME280;64701;43.536;1.478;2023-04-15T01:23:32;99400.91;;;10.93;88.94
76011;BME280;64701;43.536;1.478;2023-04-15T01:26:00;99397.63;;;10.91;89.16
76011;BME280;64701;43.536;1.478;2023-04-15T01:28:26;99396.78;;;10.91;89.31
76011;BME280;64701;43.536;1.478;2023-04-15T01:33:37;99394.38;;;10.89;89.32
76011;BME280;64701;43.536;1.478;2023-04-15T01:36:03;99395.78;;;10.92;89.01
76011;BME280;64701;43.536;1.478;2023-04-15T01:38:29;99395.78;;;10.92;88.54
76011;BME280;64701;43.536;1.478;2023-04-15T01:40:55;99401.91;;;10.92;88.44
76011;BME280;64701;43.536;1.478;2023-04-15T01:43:21;99411.31;;;10.95;87.70
76011;BME280;64701;43.536;1.478;2023-04-15T01:45:46;99399.25;;;10.92;87.56
76011;BME280;64701;43.536;1.478;2023-04-15T01:48:11;99402.53;;;10.94;87.19
76011;BME280;64701;43.536;1.478;2023-04-15T01:50:37;99414.81;;;11.02;86.17
76011;BME280;64701;43.536;1.478;2023-04-15T01:53:02;99417.88;;;11.05;86.98
76011;BME280;64701;43.536;1.478;2023-04-15T01:55:28;99426.63;;;11.06;87.53
76011;BME280;64701;43.536;1.478;2023-04-15T01:57:53;99411.72;;;10.98;88.35
76011;BME280;64701;43.536;1.478;2023-04-15T02:00:18;99414.31;;;10.92;88.74
76011;BME280;64701;43.536;1.478;2023-04-15T02:02:44;99414.13;;;10.93;88.64
76011;BME280;64701;43.536;1.478;2023-04-15T02:05:09;99408.22;;;10.91;89.48
76011;BME280;64701;43.536;1.478;2023-04-15T02:07:35;99411.88;;;10.90;89.41
76011;BME280;64701;43.536;1.478;2023-04-15T02:10:01;99412.69;;;10.91;89.96
76011;BME280;64701;43.536;1.478;2023-04-15T02:12:26;99427.75;;;10.90;90.36
76011;BME280;64701;43.536;1.478;2023-04-15T02:14:52;99424.28;;;10.83;90.36
76011;BME280;64701;43.536;1.478;2023-04-15T02:17:17;99424.28;;;10.83;90.43
76011;BME280;64701;43.536;1.478;2023-04-15T02:19:42;99436.53;;;10.84;89.46
76011;BME280;64701;43.536;1.478;2023-04-15T02:22:08;99416.72;;;10.80;88.95
76011;BME280;64701;43.536;1.478;2023-04-15T02:24:33;99409.78;;;10.79;89.24
76011;BME280;64701;43.536;1.478;2023-04-15T02:26:58;99408.34;;;10.77;88.23
76011;BME280;64701;43.536;1.478;2023-04-15T02:29:25;99411.03;;;10.83;87.63
76011;BME280;64701;43.536;1.478;2023-04-15T02:31:50;99408.94;;;10.72;87.02
76011;BME280;64701;43.536;1.478;2023-04-15T02:34:15;99409.31;;;10.69;86.43
76011;BME280;64701;43.536;1.478;2023-04-15T02:36:41;99413.75;;;10.62;86.57
76011;BME280;64701;43.536;1.478;2023-04-15T02:39:06;99411.50;;;10.59;86.67
76011;BME280;64701;43.536;1.478;2023-04-15T02:41:31;99411.06;;;10.55;87.39
76011;BME280;64701;43.536;1.478;2023-04-15T02:43:57;99407.00;;;10.53;86.77
76011;BME280;64701;43.536;1.478;2023-04-15T02:46:22;99413.28;;;10.52;87.36
76011;BME280;64701;43.536;1.478;2023-04-15T02:48:48;99416.94;;;10.51;87.31
76011;BME280;64701;43.536;1.478;2023-04-15T02:51:17;99421.00;;;10.47;88.40
76011;BME280;64701;43.536;1.478;2023-04-15T02:53:46;99424.00;;;10.44;88.48
76011;BME280;64701;43.536;1.478;2023-04-15T02:56:12;99421.00;;;10.47;89.06
76011;BME280;64701;43.536;1.478;2023-04-15T02:58:39;99419.72;;;10.43;89.56
76011;BME280;64701;43.536;1.478;2023-04-15T03:01:04;99431.78;;;10.45;89.91
76011;BME280;64701;43.536;1.478;2023-04-15T03:03:30;99414.06;;;10.46;90.61
76011;BME280;64701;43.536;1.478;2023-04-15T03:05:55;99423.88;;;10.52;90.34
76011;BME280;64701;43.536;1.478;2023-04-15T03:08:20;99427.53;;;10.51;90.25
76011;BME280;64701;43.536;1.478;2023-04-15T03:10:46;99425.06;;;10.49;90.56
76011;BME280;64701;43.536;1.478;2023-04-15T03:13:11;99417.34;;;10.48;91.98
76011;BME280;64701;43.536;1.478;2023-04-15T03:15:37;99436.81;;;10.40;93.77
76011;BME280;64701;43.536;1.478;2023-04-15T03:18:02;99436.47;;;10.50;94.53
76011;BME280;64701;43.536;1.478;2023-04-15T03:20:27;99423.06;;;10.51;94.78
76011;BME280;64701;43.536;1.478;2023-04-15T03:22:53;99428.94;;;10.47;96.54
76011;BME280;64701;43.536;1.478;2023-04-15T03:25:18;99421.78;;;10.41;96.79
76011;BME280;64701;43.536;1.478;2023-04-15T03:27:43;99427.44;;;10.38;97.14
76011;BME280;64701;43.536;1.478;2023-04-15T03:30:09;99416.78;;;10.31;98.41
76011;BME280;64701;43.536;1.478;2023-04-15T03:32:34;99416.00;;;10.31;98.33
76011;BME280;64701;43.536;1.478;2023-04-15T03:34:59;99420.66;;;10.29;98.16
76011;BME280;64701;43.536;1.478;2023-04-15T03:37:25;99418.00;;;10.29;98.26
76011;BME280;64701;43.536;1.478;2023-04-15T03:39:50;99426.38;;;10.32;97.69
76011;BME280;64701;43.536;1.478;2023-04-15T03:42:15;99416.59;;;10.33;97.40
76011;BME280;64701;43.536;1.478;2023-04-15T03:44:41;99403.38;;;10.33;96.41
76011;BME280;64701;43.536;1.478;2023-04-15T03:47:06;99420.84;;;10.27;96.04
76011;BME280;64701;43.536;1.478;2023-04-15T03:49:33;99415.94;;;10.24;95.22
76011;BME280;64701;43.536;1.478;2023-04-15T03:51:58;99434.53;;;10.31;94.69
76011;BME280;64701;43.536;1.478;2023-04-15T03:54:24;99427.59;;;10.30;93.87
76011;BME280;64701;43.536;1.478;2023-04-15T03:56:49;99427.59;;;10.30;93.74
76011;BME280;64701;43.536;1.478;2023-04-15T03:59:15;99432.25;;;10.28;93.32
76011;BME280;64701;43.536;1.478;2023-04-15T04:01:40;99441.38;;;10.25;93.16
76011;BME280;64701;43.536;1.478;2023-04-15T04:04:05;99434.25;;;10.26;92.82
76011;BME280;64701;43.536;1.478;2023-04-15T04:06:31;99442.19;;;10.26;93.37
76011;BME280;64701;43.536;1.478;2023-04-15T04:08:56;99444.41;;;10.22;92.83
76011;BME280;64701;43.536;1.478;2023-04-15T04:11:21;99450.72;;;10.21;93.11
76011;BME280;64701;43.536;1.478;2023-04-15T04:13:47;99446.47;;;10.27;92.92
76011;BME280;64701;43.536;1.478;2023-04-15T04:16:12;99453.81;;;10.25;92.95
76011;BME280;64701;43.536;1.478;2023-04-15T04:18:37;99446.31;;;10.28;93.52
76011;BME280;64701;43.536;1.478;2023-04-15T04:21:02;99448.06;;;10.21;93.09
76011;BME280;64701;43.536;1.478;2023-04-15T04:23:28;99444.84;;;10.26;93.26
76011;BME280;64701;43.536;1.478;2023-04-15T04:25:53;99440.94;;;10.21;93.52
76011;BME280;64701;43.536;1.478;2023-04-15T04:28:18;99444.84;;;10.26;92.55
76011;BME280;64701;43.536;1.478;2023-04-15T04:30:44;99448.88;;;10.21;92.36
76011;BME280;64701;43.536;1.478;2023-04-15T04:33:09;99438.06;;;10.16;92.96
76011;BME280;64701;43.536;1.478;2023-04-15T04:35:34;99444.00;;;10.18;92.29
76011;BME280;64701;43.536;1.478;2023-04-15T04:38:02;99450.00;;;10.12;92.22
76011;BME280;64701;43.536;1.478;2023-04-15T04:40:27;99453.22;;;10.08;92.48
76011;BME280;64701;43.536;1.478;2023-04-15T04:42:53;99461.16;;;10.08;92.38
76011;BME280;64701;43.536;1.478;2023-04-15T04:45:18;99462.97;;;10.07;92.68
76011;BME280;64701;43.536;1.478;2023-04-15T04:47:43;99463.78;;;10.08;92.76
76011;BME280;64701;43.536;1.478;2023-04-15T04:50:09;99466.91;;;10.11;92.22
76011;BME280;64701;43.536;1.478;2023-04-15T04:52:35;99463.84;;;10.14;92.06
76011;BME280;64701;43.536;1.478;2023-04-15T04:55:00;99468.81;;;10.17;92.05
76011;BME280;64701;43.536;1.478;2023-04-15T04:57:25;99461.03;;;10.16;92.46
76011;BME280;64701;43.536;1.478;2023-04-15T04:59:50;99472.59;;;10.15;92.62
76011;BME280;64701;43.536;1.478;2023-04-15T05:02:16;99470.78;;;10.15;92.68
76011;BME280;64701;43.536;1.478;2023-04-15T05:04:41;99472.78;;;10.13;92.12
76011;BME280;64701;43.536;1.478;2023-04-15T05:07:07;99480.56;;;10.15;91.97
76011;BME280;64701;43.536;1.478;2023-04-15T05:09:32;99478.09;;;10.13;92.30
76011;BME280;64701;43.536;1.478;2023-04-15T05:12:00;99476.00;;;10.09;92.32
76011;BME280;64701;43.536;1.478;2023-04-15T05:14:25;99476.84;;;10.09;92.39
76011;BME280;64701;43.536;1.478;2023-04-15T05:16:51;99480.88;;;10.05;92.01
76011;BME280;64701;43.536;1.478;2023-04-15T05:19:16;99494.53;;;10.09;91.88
76011;BME280;64701;43.536;1.478;2023-04-15T05:21:41;99497.25;;;10.15;91.57
76011;BME280;64701;43.536;1.478;2023-04-15T05:24:06;99497.09;;;10.17;91.80
76011;BME280;64701;43.536;1.478;2023-04-15T05:26:32;99496.53;;;10.21;91.52
76011;BME280;64701;43.536;1.478;2023-04-15T05:28:57;99493.94;;;10.28;92.11
76011;BME280;64701;43.536;1.478;2023-04-15T05:31:22;99490.09;;;10.31;91.09
76011;BME280;64701;43.536;1.478;2023-04-15T05:33:48;99501.22;;;10.26;91.02
76011;BME280;64701;43.536;1.478;2023-04-15T05:36:13;99516.94;;;10.28;90.58
76011;BME280;64701;43.536;1.478;2023-04-15T05:38:38;99508.22;;;10.34;91.00
76011;BME280;64701;43.536;1.478;2023-04-15T05:41:03;99512.88;;;10.32;90.61
76011;BME280;64701;43.536;1.478;2023-04-15T05:43:29;99508.63;;;10.31;91.22
76011;BME280;64701;43.536;1.478;2023-04-15T05:45:54;99530.16;;;10.28;91.89
76011;BME280;64701;43.536;1.478;2023-04-15T05:48:20;99523.41;;;10.25;91.94
76011;BME280;64701;43.536;1.478;2023-04-15T05:50:46;99530.34;;;10.26;91.98
76011;BME280;64701;43.536;1.478;2023-04-15T05:53:11;99526.88;;;10.26;92.46
76011;BME280;64701;43.536;1.478;2023-04-15T05:55:36;99546.03;;;10.28;92.98
76011;BME280;64701;43.536;1.478;2023-04-15T05:58:01;99537.09;;;10.29;93.07
76011;BME280;64701;43.536;1.478;2023-04-15T06:00:27;99539.94;;;10.27;93.19
76011;BME280;64701;43.536;1.478;2023-04-15T06:02:53;99541.19;;;10.31;93.32
76011;BME280;64701;43.536;1.478;2023-04-15T06:05:18;99530.81;;;10.30;93.12
76011;BME280;64701;43.536;1.478;2023-04-15T06:07:44;99544.28;;;10.35;93.56
76011;BME280;64701;43.536;1.478;2023-04-15T06:10:09;99549.31;;;10.30;94.14
76011;BME280;64701;43.536;1.478;2023-04-15T06:12:35;99556.88;;;10.33;94.89
76011;BME280;64701;43.536;1.478;2023-04-15T06:15:00;99540.38;;;10.31;95.48
76011;BME280;64701;43.536;1.478;2023-04-15T06:17:26;99543.97;;;10.23;96.88
76011;BME280;64701;43.536;1.478;2023-04-15T06:19:51;99553.16;;;10.27;96.98
76011;BME280;64701;43.536;1.478;2023-04-15T06:22:20;99551.97;;;10.30;96.55
76011;BME280;64701;43.536;1.478;2023-04-15T06:24:46;99549.06;;;10.25;96.50
76011;BME280;64701;43.536;1.478;2023-04-15T06:27:11;99553.63;;;10.31;96.90
76011;BME280;64701;43.536;1.478;2023-04-15T06:29:36;99559.91;;;10.30;97.16
76011;BME280;64701;43.536;1.478;2023-04-15T06:32:02;99556.28;;;10.37;97.05
76011;BME280;64701;43.536;1.478;2023-04-15T06:34:27;99570.00;;;10.41;97.11
76011;BME280;64701;43.536;1.478;2023-04-15T06:36:52;99572.38;;;10.36;97.02
76011;BME280;64701;43.536;1.478;2023-04-15T06:39:18;99586.31;;;10.44;96.84
76011;BME280;64701;43.536;1.478;2023-04-15T06:41:43;99586.38;;;10.51;95.99
76011;BME280;64701;43.536;1.478;2023-04-15T06:44:09;99591.31;;;10.54;96.35
76011;BME280;64701;43.536;1.478;2023-04-15T06:46:35;99589.66;;;10.53;96.01
76011;BME280;64701;43.536;1.478;2023-04-15T06:49:00;99602.25;;;10.51;96.38
76011;BME280;64701;43.536;1.478;2023-04-15T06:51:27;99613.97;;;10.63;96.08
76011;BME280;64701;43.536;1.478;2023-04-15T06:53:52;99623.00;;;10.69;95.81
76011;BME280;64701;43.536;1.478;2023-04-15T06:56:18;99616.19;;;10.59;97.10
76011;BME280;64701;43.536;1.478;2023-04-15T06:58:43;99620.53;;;10.46;96.59
76011;BME280;64701;43.536;1.478;2023-04-15T07:01:08;99633.78;;;10.46;96.64
76011;BME280;64701;43.536;1.478;2023-04-15T07:03:33;99643.28;;;10.40;97.22
76011;BME280;64701;43.536;1.478;2023-04-15T07:05:59;99641.53;;;10.47;97.97
76011;BME280;64701;43.536;1.478;2023-04-15T07:08:25;99638.66;;;10.49;97.29
76011;BME280;64701;43.536;1.478;2023-04-15T07:10:50;99637.66;;;10.50;96.48
76011;BME280;64701;43.536;1.478;2023-04-15T07:13:16;99647.91;;;10.53;95.71
76011;BME280;64701;43.536;1.478;2023-04-15T07:15:41;99649.09;;;10.50;95.55
76011;BME280;64701;43.536;1.478;2023-04-15T07:18:06;99664.22;;;10.56;95.42
76011;BME280;64701;43.536;1.478;2023-04-15T07:20:32;99654.44;;;10.57;95.04
76011;BME280;64701;43.536;1.478;2023-04-15T07:22:57;99665.22;;;10.55;95.01
76011;BME280;64701;43.536;1.478;2023-04-15T07:25:23;99662.78;;;10.54;94.71
76011;BME280;64701;43.536;1.478;2023-04-15T07:27:48;99669.69;;;10.55;94.69
76011;BME280;64701;43.536;1.478;2023-04-15T07:30:13;99670.00;;;10.45;94.38
76011;BME280;64701;43.536;1.478;2023-04-15T07:32:38;99673.78;;;10.36;94.63
76011;BME280;64701;43.536;1.478;2023-04-15T07:35:04;99664.28;;;10.42;94.77
76011;BME280;64701;43.536;1.478;2023-04-15T07:37:29;99671.47;;;10.48;95.11
76011;BME280;64701;43.536;1.478;2023-04-15T07:39:55;99672.34;;;10.55;94.53
76011;BME280;64701;43.536;1.478;2023-04-15T07:42:20;99665.69;;;10.59;93.92
76011;BME280;64701;43.536;1.478;2023-04-15T07:44:46;99671.88;;;10.66;92.92
76011;BME280;64701;43.536;1.478;2023-04-15T07:47:11;99670.47;;;10.70;92.79
76011;BME280;64701;43.536;1.478;2023-04-15T07:49:36;99664.94;;;10.65;92.84
76011;BME280;64701;43.536;1.478;2023-04-15T07:52:02;99670.09;;;10.73;92.08
76011;BME280;64701;43.536;1.478;2023-04-15T07:54:27;99674.44;;;10.81;91.54
76011;BME280;64701;43.536;1.478;2023-04-15T07:56:53;99673.09;;;10.91;91.81
76011;BME280;64701;43.536;1.478;2023-04-15T07:59:18;99681.69;;;10.93;91.19
76011;BME280;64701;43.536;1.478;2023-04-15T08:01:43;99668.22;;;10.88;90.65
76011;BME280;64701;43.536;1.478;2023-04-15T08:04:09;99676.47;;;11.00;90.05
76011;BME280;64701;43.536;1.478;2023-04-15T08:06:34;99677.88;;;10.96;89.75
76011;BME280;64701;43.536;1.478;2023-04-15T08:09:00;99680.50;;;10.96;89.83
76011;BME280;64701;43.536;1.478;2023-04-15T08:11:25;99690.66;;;10.92;89.67
76011;BME280;64701;43.536;1.478;2023-04-15T08:13:51;99688.81;;;10.93;88.76
76011;BME280;64701;43.536;1.478;2023-04-15T08:18:48;99689.06;;;10.98;88.31
76011;BME280;64701;43.536;1.478;2023-04-15T08:21:15;99690.38;;;11.09;87.87
76011;BME280;64701;43.536;1.478;2023-04-15T08:23:40;99692.19;;;11.01;86.77
76011;BME280;64701;43.536;1.478;2023-04-15T08:26:07;99695.25;;;11.05;86.76
76011;BME280;64701;43.536;1.478;2023-04-15T08:28:32;99699.72;;;11.04;85.95
76011;BME280;64701;43.536;1.478;2023-04-15T08:30:58;99706.03;;;11.03;85.88
76011;BME280;64701;43.536;1.478;2023-04-15T08:33:23;99701.25;;;11.14;85.43
76011;BME280;64701;43.536;1.478;2023-04-15T08:35:48;99703.63;;;11.30;86.42
76011;BME280;64701;43.536;1.478;2023-04-15T08:38:14;99699.81;;;11.39;85.68
76011;BME280;64701;43.536;1.478;2023-04-15T08:40:42;99696.38;;;11.45;85.14
76011;BME280;64701;43.536;1.478;2023-04-15T08:43:09;99692.59;;;11.54;84.83
76011;BME280;64701;43.536;1.478;2023-04-15T08:45:37;99707.91;;;11.59;84.90
76011;BME280;64701;43.536;1.478;2023-04-15T08:48:03;99704.25;;;11.60;83.75
76011;BME280;64701;43.536;1.478;2023-04-15T08:50:29;99709.09;;;11.77;84.57
76011;BME280;64701;43.536;1.478;2023-04-15T08:52:56;99707.09;;;11.79;84.12
76011;BME280;64701;43.536;1.478;2023-04-15T08:55:22;99713.84;;;11.89;84.58
76011;BME280;64701;43.536;1.478;2023-04-15T08:57:49;99709.41;;;11.96;83.78
76011;BME280;64701;43.536;1.478;2023-04-15T09:00:15;99700.34;;;12.18;82.89
76011;BME280;64701;43.536;1.478;2023-04-15T09:02:41;99707.44;;;12.11;81.04
76011;BME280;64701;43.536;1.478;2023-04-15T09:05:07;99716.03;;;12.13;81.03
76011;BME280;64701;43.536;1.478;2023-04-15T09:07:33;99712.81;;;12.24;81.08
76011;BME280;64701;43.536;1.478;2023-04-15T09:09:59;99703.84;;;12.25;79.82
76011;BME280;64701;43.536;1.478;2023-04-15T09:12:25;99707.16;;;12.40;78.54
76011;BME280;64701;43.536;1.478;2023-04-15T09:14:50;99711.91;;;12.45;77.62
76011;BME280;64701;43.536;1.478;2023-04-15T09:17:17;99712.97;;;12.57;77.20
76011;BME280;64701;43.536;1.478;2023-04-15T09:19:43;99725.88;;;12.73;77.14
76011;BME280;64701;43.536;1.478;2023-04-15T09:22:08;99724.44;;;12.77;75.77
76011;BME280;64701;43.536;1.478;2023-04-15T09:24:35;99718.31;;;12.77;75.34
76011;BME280;64701;43.536;1.478;2023-04-15T09:27:14;99722.78;;;12.69;73.41
76011;BME280;64701;43.536;1.478;2023-04-15T09:29:40;99734.25;;;12.77;73.84
76011;BME280;64701;43.536;1.478;2023-04-15T09:32:13;99723.25;;;12.80;72.90
76011;BME280;64701;43.536;1.478;2023-04-15T09:34:39;99725.28;;;12.84;72.01
76011;BME280;64701;43.536;1.478;2023-04-15T09:37:05;99732.66;;;12.95;72.62
76011;BME280;64701;43.536;1.478;2023-04-15T09:39:49;99735.53;;;13.07;72.42
76011;BME280;64701;43.536;1.478;2023-04-15T09:42:16;99734.13;;;13.04;69.39
76011;BME280;64701;43.536;1.478;2023-04-15T09:44:51;99749.25;;;13.04;69.35
76011;BME280;64701;43.536;1.478;2023-04-15T09:47:26;99751.09;;;13.03;69.08
76011;BME280;64701;43.536;1.478;2023-04-15T09:49:55;99750.28;;;13.03;67.70
76011;BME280;64701;43.536;1.478;2023-04-15T09:52:21;99747.88;;;13.21;70.79
76011;BME280;64701;43.536;1.478;2023-04-15T09:54:46;99747.88;;;13.21;67.59
76011;BME280;64701;43.536;1.478;2023-04-15T09:57:11;99735.97;;;13.11;65.00
76011;BME280;64701;43.536;1.478;2023-04-15T09:59:37;99739.47;;;13.24;65.28
76011;BME280;64701;43.536;1.478;2023-04-15T10:02:03;99731.50;;;13.37;64.26
76011;BME280;64701;43.536;1.478;2023-04-15T10:04:28;99720.06;;;13.43;64.92
76011;BME280;64701;43.536;1.478;2023-04-15T10:06:54;99737.03;;;13.49;64.04
76011;BME280;64701;43.536;1.478;2023-04-15T10:09:20;99729.44;;;13.53;62.89
76011;BME280;64701;43.536;1.478;2023-04-15T10:11:46;99736.19;;;13.81;64.23
76011;BME280;64701;43.536;1.478;2023-04-15T10:14:13;99738.44;;;13.84;63.51
76011;BME280;64701;43.536;1.478;2023-04-15T10:16:40;99729.41;;;13.92;62.41
76011;BME280;64701;43.536;1.478;2023-04-15T10:19:07;99734.31;;;13.88;62.00
76011;BME280;64701;43.536;1.478;2023-04-15T10:21:33;99734.94;;;13.97;60.34
76011;BME280;64701;43.536;1.478;2023-04-15T10:23:59;99735.94;;;14.09;60.49
76011;BME280;64701;43.536;1.478;2023-04-15T10:26:26;99739.78;;;14.20;60.06
76011;BME280;64701;43.536;1.478;2023-04-15T10:28:52;99738.97;;;14.13;56.37
76011;BME280;64701;43.536;1.478;2023-04-15T10:31:17;99750.25;;;14.21;57.31
76011;BME280;64701;43.536;1.478;2023-04-15T10:33:44;99744.06;;;14.27;56.71
76011;BME280;64701;43.536;1.478;2023-04-15T10:36:09;99752.63;;;14.36;56.49
76011;BME280;64701;43.536;1.478;2023-04-15T10:38:42;99749.41;;;14.27;55.99
76011;BME280;64701;43.536;1.478;2023-04-15T10:41:18;99744.88;;;14.35;57.69
76011;BME280;64701;43.536;1.478;2023-04-15T10:43:47;99746.28;;;14.44;56.38
76011;BME280;64701;43.536;1.478;2023-04-15T10:46:15;99736.47;;;14.44;56.20
76011;BME280;64701;43.536;1.478;2023-04-15T10:48:46;99734.97;;;14.55;56.02
76011;BME280;64701;43.536;1.478;2023-04-15T10:51:12;99749.44;;;14.72;56.95
76011;BME280;64701;43.536;1.478;2023-04-15T10:53:37;99743.59;;;14.57;55.15
76011;BME280;64701;43.536;1.478;2023-04-15T10:56:06;99742.22;;;14.79;58.26
76011;BME280;64701;43.536;1.478;2023-04-15T10:58:39;99745.16;;;14.71;55.39
76011;BME280;64701;43.536;1.478;2023-04-15T11:01:05;99750.78;;;14.94;54.58
76011;BME280;64701;43.536;1.478;2023-04-15T11:03:38;99750.66;;;15.07;53.77
76011;BME280;64701;43.536;1.478;2023-04-15T11:06:04;99742.16;;;15.24;53.92
76011;BME280;64701;43.536;1.478;2023-04-15T11:11:14;99757.38;;;15.48;51.35
76011;BME280;64701;43.536;1.478;2023-04-15T11:13:46;99746.03;;;15.59;51.42
76011;BME280;64701;43.536;1.478;2023-04-15T11:16:12;99756.09;;;15.57;51.50
76011;BME280;64701;43.536;1.478;2023-04-15T11:18:37;99752.75;;;15.62;49.88
76011;BME280;64701;43.536;1.478;2023-04-15T11:21:04;99753.75;;;15.67;49.31
76011;BME280;64701;43.536;1.478;2023-04-15T11:23:30;99758.03;;;15.93;50.85
76011;BME280;64701;43.536;1.478;2023-04-15T11:25:56;99761.97;;;15.90;50.58
76011;BME280;64701;43.536;1.478;2023-04-15T11:28:26;99768.88;;;15.98;49.84
76011;BME280;64701;43.536;1.478;2023-04-15T11:30:52;99751.13;;;16.04;51.09
76011;BME280;64701;43.536;1.478;2023-04-15T11:33:18;99748.72;;;16.20;49.43
76011;BME280;64701;43.536;1.478;2023-04-15T11:35:43;99752.03;;;16.16;49.75
76011;BME280;64701;43.536;1.478;2023-04-15T11:38:10;99757.69;;;16.08;48.28
76011;BME280;64701;43.536;1.478;2023-04-15T11:40:38;99744.34;;;16.26;49.26
76011;BME280;64701;43.536;1.478;2023-04-15T11:43:08;99749.44;;;16.46;47.91
76011;BME280;64701;43.536;1.478;2023-04-15T11:45:33;99759.25;;;16.70;48.21
76011;BME280;64701;43.536;1.478;2023-04-15T11:50:31;99744.28;;;16.32;47.54
76011;BME280;64701;43.536;1.478;2023-04-15T11:55:22;99747.44;;;16.41;46.89
76011;BME280;64701;43.536;1.478;2023-04-15T11:57:49;99762.00;;;16.63;46.51
76011;BME280;64701;43.536;1.478;2023-04-15T12:00:15;99761.19;;;16.63;45.99
76011;BME280;64701;43.536;1.478;2023-04-15T12:02:41;99762.16;;;16.98;45.99
76011;BME280;64701;43.536;1.478;2023-04-15T12:05:07;99755.66;;;17.06;43.01
76011;BME280;64701;43.536;1.478;2023-04-15T12:07:34;99765.31;;;17.48;45.75
76011;BME280;64701;43.536;1.478;2023-04-15T12:10:18;99761.06;;;17.82;43.82
76011;BME280;64701;43.536;1.478;2023-04-15T12:12:47;99766.25;;;18.35;43.63
76011;BME280;64701;43.536;1.478;2023-04-15T12:15:12;99761.81;;;18.53;42.95
76011;BME280;64701;43.536;1.478;2023-04-15T12:17:38;99762.84;;;19.20;43.21
76011;BME280;64701;43.536;1.478;2023-04-15T12:20:04;99769.28;;;19.64;42.19
76011;BME280;64701;43.536;1.478;2023-04-15T12:22:29;99765.53;;;19.20;38.76
76011;BME280;64701;43.536;1.478;2023-04-15T12:25:01;99783.72;;;18.50;38.62
76011;BME280;64701;43.536;1.478;2023-04-15T12:27:27;99786.34;;;18.85;40.74
76011;BME280;64701;43.536;1.478;2023-04-15T12:29:56;99756.09;;;18.89;38.71
76011;BME280;64701;43.536;1.478;2023-04-15T12:32:27;99773.69;;;18.97;39.15
76011;BME280;64701;43.536;1.478;2023-04-15T12:34:53;99775.69;;;19.63;39.65
76011;BME280;64701;43.536;1.478;2023-04-15T12:37:18;99755.25;;;19.95;35.43
76011;BME280;64701;43.536;1.478;2023-04-15T12:39:44;99773.56;;;19.82;36.11
76011;BME280;64701;43.536;1.478;2023-04-15T12:42:10;99773.56;;;19.98;35.70
76011;BME280;64701;43.536;1.478;2023-04-15T12:44:36;99782.19;;;20.01;35.93
76011;BME280;64701;43.536;1.478;2023-04-15T12:47:01;99777.81;;;19.78;37.96
76011;BME280;64701;43.536;1.478;2023-04-15T12:49:27;99775.69;;;19.80;38.94
76011;BME280;64701;43.536;1.478;2023-04-15T12:51:54;99785.44;;;19.86;39.68
76011;BME280;64701;43.536;1.478;2023-04-15T12:54:19;99775.00;;;20.06;35.17
76011;BME280;64701;43.536;1.478;2023-04-15T12:56:46;99785.84;;;20.11;37.53
76011;BME280;64701;43.536;1.478;2023-04-15T12:59:12;99789.94;;;19.80;36.19
76011;BME280;64701;43.536;1.478;2023-04-15T13:01:38;99776.44;;;19.75;35.33
76011;BME280;64701;43.536;1.478;2023-04-15T13:04:03;99792.50;;;20.09;36.09
76011;BME280;64701;43.536;1.478;2023-04-15T13:06:29;99790.19;;;19.95;36.99